Time;durP1;ratioP1;P1;durP2;ratioP2;P2;SDS_P1;SDS_P2;PMS_P1;PMS_P2;Temp;Humidity;BMP_temperature;BMP_pressure;BME280_temperature;BME280_humidity;BME280_pressure;Samples;Min_cycle;Max_cycle;Signal;HPM_P1;HPM_P2
2022/05/18 00:01:32;;;;;;;15.47;13.23;;;20.40;72.30;;;;;;5099070;28;20255;-90
2022/05/18 00:03:57;;;;;;;14.73;12.40;;;20.40;72.40;;;;;;5098225;28;20817;-90
2022/05/18 00:06:23;;;;;;;20.33;14.80;;;20.40;72.20;;;;;;5096960;28;20172;-90
2022/05/18 00:08:49;;;;;;;15.87;14.20;;;20.40;71.90;;;;;;5098595;28;20195;-90
2022/05/18 00:11:19;;;;;;;16.97;13.67;;;20.40;71.90;;;;;;5082548;28;20187;-90
2022/05/18 00:13:47;;;;;;;18.97;14.30;;;20.30;72.50;;;;;;5088668;28;20251;-90
2022/05/18 00:16:14;;;;;;;16.10;13.90;;;20.40;71.90;;;;;;5091679;28;20438;-90
2022/05/18 00:18:39;;;;;;;18.27;14.87;;;20.40;71.60;;;;;;5070667;28;20437;-91
2022/05/18 00:21:06;;;;;;;20.77;14.50;;;20.40;71.30;;;;;;5081139;28;20479;-90
2022/05/18 00:23:33;;;;;;;18.85;15.93;;;20.30;71.90;;;;;;5068094;28;20176;-90
2022/05/18 00:26:00;;;;;;;19.47;13.33;;;20.30;72.00;;;;;;5081475;28;20172;-90
2022/05/18 00:28:25;;;;;;;16.15;14.02;;;20.30;71.90;;;;;;5087541;28;20512;-90
2022/05/18 00:30:51;;;;;;;21.90;15.33;;;20.30;71.50;;;;;;5087740;28;20215;-89
2022/05/18 00:33:18;;;;;;;26.07;14.83;;;20.30;71.30;;;;;;5095900;28;20229;-89
2022/05/18 00:35:44;;;;;;;18.50;14.27;;;20.30;71.60;;;;;;5090167;28;20826;-89
2022/05/18 00:38:10;;;;;;;20.40;15.73;;;20.20;71.70;;;;;;5096451;28;20449;-89
2022/05/18 00:40:39;;;;;;;18.50;16.50;;;20.30;71.60;;;;;;5098948;28;20195;-89
2022/05/18 00:43:05;;;;;;;19.70;14.60;;;20.30;71.10;;;;;;5094109;28;20172;-88
2022/05/18 00:45:31;;;;;;;17.95;14.98;;;20.20;70.90;;;;;;5064040;28;20427;-89
2022/05/18 00:47:57;;;;;;;16.60;14.73;;;20.20;71.00;;;;;;5099504;28;20203;-89
2022/05/18 00:50:33;;;;;;;17.77;15.80;;;20.20;71.30;;;;;;5102185;28;20176;-88
2022/05/18 00:53:03;;;;;;;17.20;14.57;;;20.20;71.00;;;;;;5096215;28;20263;-89
2022/05/18 00:55:33;;;;;;;17.80;14.43;;;20.20;70.90;;;;;;5082576;28;20229;-89
2022/05/18 00:58:15;;;;;;;19.97;14.20;;;20.20;71.60;;;;;;5097741;28;20221;-89
2022/05/18 01:00:42;;;;;;;18.23;14.07;;;20.10;71.70;;;;;;5099390;28;20464;-90
2022/05/18 01:03:18;;;;;;;16.42;13.18;;;20.10;71.20;;;;;;5090307;28;20438;-89
2022/05/18 01:05:49;;;;;;;20.25;14.60;;;20.10;70.80;;;;;;5079668;28;20168;-89
2022/05/18 01:08:19;;;;;;;17.17;14.40;;;20.20;70.30;;;;;;5094161;28;20203;-89
2022/05/18 01:10:45;;;;;;;24.48;14.77;;;20.20;70.20;;;;;;5101467;28;20409;-90
2022/05/18 01:13:12;;;;;;;16.23;14.33;;;20.20;70.00;;;;;;5101769;28;20191;-89
2022/05/18 01:15:38;;;;;;;15.80;14.10;;;20.20;69.70;;;;;;5097362;28;20191;-89
2022/05/18 01:18:04;;;;;;;17.63;13.27;;;20.20;69.50;;;;;;5096949;28;20544;-89
2022/05/18 01:20:35;;;;;;;18.87;14.20;;;20.10;70.10;;;;;;5078504;28;20454;-89
2022/05/18 01:23:31;;;;;;;16.55;12.98;;;20.20;69.90;;;;;;5079585;28;20414;-89
2022/05/18 01:26:35;;;;;;;15.23;13.33;;;20.20;69.70;;;;;;5071589;28;20172;-89
2022/05/18 01:29:05;;;;;;;16.37;12.87;;;20.20;69.70;;;;;;5086458;28;20441;-90
2022/05/18 01:31:52;;;;;;;16.93;14.27;;;20.20;70.20;;;;;;5097108;28;20426;-89
2022/05/18 01:34:21;;;;;;;21.30;13.90;;;20.30;69.40;;;;;;5100095;28;20445;-89
2022/05/18 01:36:48;;;;;;;16.27;13.70;;;20.30;69.10;;;;;;5097309;28;20421;-89
2022/05/18 01:39:36;;;;;;;14.63;13.10;;;20.30;69.20;;;;;;5078908;28;20183;-89
2022/05/18 01:42:07;;;;;;;20.97;13.53;;;20.30;69.20;;;;;;5061132;28;20466;-89
2022/05/18 01:44:37;;;;;;;20.63;14.93;;;20.30;68.90;;;;;;5069082;28;20426;-89
2022/05/18 01:47:05;;;;;;;17.65;13.73;;;20.30;68.60;;;;;;5094222;28;20191;-89
2022/05/18 01:49:32;;;;;;;15.27;12.75;;;20.40;68.00;;;;;;5090861;28;20607;-89
2022/05/18 01:51:58;;;;;;;15.50;13.33;;;20.30;68.10;;;;;;5087537;28;20243;-89
2022/05/18 01:54:24;;;;;;;17.67;13.15;;;20.30;68.20;;;;;;5079682;28;20430;-89
2022/05/18 01:56:50;;;;;;;17.80;13.33;;;20.30;68.20;;;;;;5093909;28;20203;-88
2022/05/18 01:59:16;;;;;;;17.13;14.40;;;20.30;68.00;;;;;;5079079;28;20168;-89
2022/05/18 02:01:42;;;;;;;14.63;13.13;;;20.40;67.40;;;;;;5081770;28;20466;-90
2022/05/18 02:04:07;;;;;;;16.30;13.00;;;20.40;67.10;;;;;;5089430;28;20481;-90
2022/05/18 02:06:35;;;;;;;18.77;14.50;;;20.30;68.10;;;;;;5077109;28;20188;-89
2022/05/18 02:09:01;;;;;;;18.55;13.00;;;20.20;68.30;;;;;;5078277;28;20655;-89
2022/05/18 02:11:27;;;;;;;18.63;12.98;;;20.20;68.90;;;;;;5077947;28;20266;-89
2022/05/18 02:13:55;;;;;;;18.70;13.73;;;20.10;69.10;;;;;;5077955;28;20208;-90
2022/05/18 02:16:21;;;;;;;18.20;12.93;;;20.20;68.40;;;;;;5090674;28;20190;-90
2022/05/18 02:18:46;;;;;;;15.93;13.20;;;20.20;68.70;;;;;;5096618;28;20190;-91
2022/05/18 02:21:12;;;;;;;15.50;12.53;;;20.20;68.80;;;;;;5096096;28;20204;-90
2022/05/18 02:23:40;;;;;;;24.73;14.07;;;20.20;69.00;;;;;;5096060;28;20229;-90
2022/05/18 02:26:12;;;;;;;18.33;13.65;;;20.20;69.10;;;;;;5096191;28;20897;-90
2022/05/18 02:28:38;;;;;;;20.15;13.52;;;20.20;68.60;;;;;;5083592;28;20644;-90
2022/05/18 02:31:03;;;;;;;17.30;12.50;;;20.20;68.30;;;;;;5097297;28;20199;-89
2022/05/18 02:33:29;;;;;;;16.33;11.93;;;20.20;68.30;;;;;;5079391;28;20172;-89
2022/05/18 02:35:55;;;;;;;13.93;11.20;;;20.20;68.30;;;;;;5080278;28;20421;-90
2022/05/18 02:38:21;;;;;;;18.17;13.60;;;20.30;68.50;;;;;;5081554;28;20225;-90
2022/05/18 02:40:46;;;;;;;13.57;12.20;;;20.30;68.70;;;;;;5084405;28;20231;-90
2022/05/18 02:43:12;;;;;;;20.33;13.67;;;20.30;68.60;;;;;;5088329;28;20557;-90
2022/05/18 02:45:38;;;;;;;19.37;13.10;;;20.30;69.10;;;;;;5101941;28;20172;-89
2022/05/18 02:48:05;;;;;;;23.53;14.33;;;20.30;69.10;;;;;;5062474;28;20210;-90
2022/05/18 02:50:33;;;;;;;14.93;11.60;;;20.30;68.70;;;;;;5079019;28;20188;-90
2022/05/18 02:52:59;;;;;;;14.30;12.30;;;20.30;68.70;;;;;;5078253;28;20184;-90
2022/05/18 02:58:09;;;;;;;19.20;14.27;;;20.30;69.00;;;;;;5100826;28;20440;-90
2022/05/18 03:00:35;;;;;;;14.03;12.57;;;20.30;69.10;;;;;;5081719;28;20457;-90
2022/05/18 03:03:01;;;;;;;17.40;12.67;;;20.40;69.10;;;;;;5082639;28;20424;-90
2022/05/18 03:05:26;;;;;;;18.13;14.53;;;20.50;68.10;;;;;;5083758;28;20180;-90
2022/05/18 03:07:52;;;;;;;16.63;14.03;;;20.60;67.20;;;;;;5084689;28;20243;-90
2022/05/18 03:10:18;;;;;;;13.83;12.40;;;20.70;66.80;;;;;;5083460;28;20692;-90
2022/05/18 03:12:45;;;;;;;14.17;11.90;;;20.50;68.40;;;;;;5108682;28;20191;-91
2022/05/18 03:15:12;;;;;;;20.03;12.67;;;20.50;68.00;;;;;;5103546;28;20430;-92
2022/05/18 03:17:38;;;;;;;19.63;14.60;;;20.50;67.80;;;;;;5104361;28;20461;-90
2022/05/18 03:20:05;;;;;;;12.93;11.37;;;20.60;67.40;;;;;;5104106;28;20413;-91
2022/05/18 03:25:15;;;;;;;18.27;12.50;;;20.50;67.80;;;;;;5107025;28;20389;-89
2022/05/18 03:27:44;;;;;;;17.53;12.13;;;20.60;67.40;;;;;;5100148;28;20429;-90
2022/05/18 03:30:16;;;;;;;17.10;12.87;;;20.70;67.10;;;;;;5102766;28;20171;-90
2022/05/18 03:32:41;;;;;;;14.53;12.63;;;20.70;66.90;;;;;;5082957;28;20533;-90
2022/05/18 03:35:08;;;;;;;13.77;12.33;;;20.60;66.80;;;;;;5089189;28;20921;-90
2022/05/18 03:37:34;;;;;;;19.73;13.53;;;20.50;67.20;;;;;;5098813;28;20202;-90
2022/05/18 03:40:00;;;;;;;15.70;13.97;;;20.30;68.00;;;;;;5083290;28;20410;-90
2022/05/18 03:42:26;;;;;;;22.40;15.37;;;20.40;68.50;;;;;;5081860;28;20182;-91
2022/05/18 03:44:52;;;;;;;19.63;15.45;;;20.30;68.70;;;;;;5099682;28;20183;-89
2022/05/18 03:47:18;;;;;;;15.03;13.43;;;20.20;69.30;;;;;;5082616;28;20281;-90
2022/05/18 03:49:44;;;;;;;15.10;11.83;;;20.10;69.60;;;;;;5085168;28;20647;-90
2022/05/18 03:52:09;;;;;;;17.40;13.40;;;20.10;69.60;;;;;;5081359;28;20175;-91
2022/05/18 03:54:35;;;;;;;17.20;13.20;;;20.10;68.90;;;;;;5080788;28;20640;-91
2022/05/18 03:57:01;;;;;;;26.83;14.13;;;20.20;68.60;;;;;;5081637;28;20245;-90
2022/05/18 03:59:27;;;;;;;14.63;12.33;;;20.20;69.20;;;;;;5082115;28;20418;-90
2022/05/18 04:01:53;;;;;;;17.10;12.00;;;20.20;68.90;;;;;;5083946;28;20287;-90
2022/05/18 04:04:18;;;;;;;14.20;12.70;;;20.30;68.50;;;;;;5087245;28;20275;-89
2022/05/18 04:06:44;;;;;;;14.00;11.03;;;20.20;68.80;;;;;;5081259;28;20434;-90
2022/05/18 04:09:10;;;;;;;14.23;11.67;;;20.30;68.20;;;;;;5082413;28;20228;-91
2022/05/18 04:11:36;;;;;;;19.27;11.83;;;20.30;67.80;;;;;;5107077;28;20179;-91
2022/05/18 04:14:01;;;;;;;13.47;11.07;;;20.30;67.90;;;;;;5085609;28;20422;-90
2022/05/18 04:16:27;;;;;;;13.17;11.03;;;20.30;68.20;;;;;;5081099;28;20667;-90
2022/05/18 04:18:53;;;;;;;15.90;10.53;;;20.30;68.10;;;;;;5080739;28;20207;-90
2022/05/18 04:21:19;;;;;;;15.00;11.50;;;20.30;68.10;;;;;;5080150;28;20200;-90
2022/05/18 04:23:45;;;;;;;18.10;12.43;;;20.30;68.60;;;;;;5080830;28;20577;-90
2022/05/18 04:26:11;;;;;;;18.57;12.97;;;20.30;69.00;;;;;;5080222;28;20504;-90
2022/05/18 04:28:37;;;;;;;21.10;10.87;;;20.20;69.10;;;;;;5079996;28;20199;-89
2022/05/18 04:31:03;;;;;;;16.77;12.47;;;20.20;69.00;;;;;;5079946;28;20418;-90
2022/05/18 04:33:29;;;;;;;15.37;11.50;;;20.30;69.20;;;;;;5080452;28;20421;-89
2022/05/18 04:35:55;;;;;;;16.43;11.07;;;20.40;68.90;;;;;;5080207;28;20447;-90
2022/05/18 04:38:22;;;;;;;12.20;9.40;;;20.40;68.40;;;;;;5079543;28;20438;-90
2022/05/18 04:40:48;;;;;;;14.77;9.13;;;20.50;68.20;;;;;;5080172;28;20675;-90
2022/05/18 04:43:17;;;;;;;13.03;9.93;;;20.60;67.70;;;;;;5080204;28;20436;-90
2022/05/18 04:45:45;;;;;;;19.77;10.67;;;20.60;66.70;;;;;;5081759;28;20593;-89
2022/05/18 04:48:15;;;;;;;11.10;9.03;;;20.70;66.60;;;;;;5089646;28;20446;-89
2022/05/18 04:50:41;;;;;;;16.30;10.53;;;20.70;66.70;;;;;;5097661;28;20452;-89
2022/05/18 04:53:07;;;;;;;12.57;11.27;;;20.70;67.10;;;;;;5087892;28;20417;-90
2022/05/18 04:55:33;;;;;;;13.43;9.77;;;20.70;67.10;;;;;;5098292;28;20426;-90
2022/05/18 04:58:03;;;;;;;14.10;10.90;;;20.60;66.80;;;;;;5086317;28;20210;-91
2022/05/18 05:01:01;;;;;;;18.23;11.83;;;20.60;66.70;;;;;;5082718;28;20203;-89
2022/05/18 05:03:27;;;;;;;13.63;10.23;;;20.60;66.00;;;;;;5081664;28;20429;-89
2022/05/18 05:05:53;;;;;;;14.33;10.27;;;20.60;65.90;;;;;;5068812;28;20427;-89
2022/05/18 05:08:19;;;;;;;13.27;11.17;;;20.70;66.20;;;;;;5078252;28;20207;-89
2022/05/18 05:10:45;;;;;;;16.83;11.70;;;20.70;66.00;;;;;;5088562;28;20425;-89
2022/05/18 05:13:11;;;;;;;14.40;11.43;;;20.70;66.40;;;;;;5091405;28;20389;-89
2022/05/18 05:15:37;;;;;;;21.90;12.53;;;20.70;66.80;;;;;;5103096;28;20446;-89
2022/05/18 05:18:03;;;;;;;21.53;12.43;;;20.70;67.60;;;;;;5095091;28;20195;-89
2022/05/18 05:20:40;;;;;;;16.80;12.20;;;20.80;67.90;;;;;;5082406;28;20458;-89
2022/05/18 05:23:06;;;;;;;14.83;11.47;;;20.80;68.40;;;;;;5086775;28;20448;-89
2022/05/18 05:25:32;;;;;;;17.00;12.23;;;20.70;69.10;;;;;;5106199;28;20446;-88
2022/05/18 05:27:58;;;;;;;16.63;12.93;;;20.80;69.80;;;;;;5087469;28;20200;-89
2022/05/18 05:30:24;;;;;;;17.00;11.77;;;20.70;70.10;;;;;;5086222;28;20188;-89
2022/05/18 05:32:49;;;;;;;18.57;12.20;;;20.90;70.50;;;;;;5085350;28;20937;-90
2022/05/18 05:35:15;;;;;;;27.67;14.33;;;20.90;70.60;;;;;;5096204;28;20421;-87
2022/05/18 05:37:41;;;;;;;20.90;11.80;;;20.90;70.70;;;;;;5096356;28;20483;-88
2022/05/18 05:40:08;;;;;;;18.90;12.27;;;21.00;70.70;;;;;;5101268;28;20421;-91
2022/05/18 05:42:33;;;;;;;18.13;13.50;;;21.10;70.70;;;;;;5116480;28;20585;-88
2022/05/18 05:44:59;;;;;;;18.90;12.97;;;21.20;70.60;;;;;;5112078;28;20463;-88
2022/05/18 05:47:25;;;;;;;19.90;12.90;;;21.20;70.60;;;;;;5094984;28;20773;-87
2022/05/18 05:49:52;;;;;;;19.27;12.00;;;21.30;71.50;;;;;;5095536;28;20180;-88
2022/05/18 05:52:17;;;;;;;23.90;13.30;;;21.20;72.40;;;;;;5095808;28;20222;-88
2022/05/18 05:54:44;;;;;;;17.50;14.00;;;21.20;73.00;;;;;;5096318;28;20475;-87
2022/05/18 05:57:10;;;;;;;16.10;12.50;;;21.10;73.30;;;;;;5097525;28;20550;-88
2022/05/18 05:59:37;;;;;;;20.97;13.20;;;21.10;73.60;;;;;;5096495;28;20421;-88
2022/05/18 06:02:06;;;;;;;19.20;13.60;;;21.20;73.70;;;;;;5106521;28;20450;-89
2022/05/18 06:04:34;;;;;;;20.07;12.67;;;21.20;73.10;;;;;;5092916;28;20409;-90
2022/05/18 06:07:00;;;;;;;14.23;11.57;;;21.20;72.70;;;;;;5104208;28;20425;-90
2022/05/18 06:09:26;;;;;;;15.63;11.37;;;21.20;72.40;;;;;;5099159;28;20425;-90
2022/05/18 06:11:53;;;;;;;26.70;11.00;;;21.30;72.30;;;;;;5102212;28;20433;-92
2022/05/18 06:14:19;;;;;;;16.03;10.67;;;21.30;72.30;;;;;;5098285;28;20471;-91
2022/05/18 06:16:49;;;;;;;22.23;11.67;;;21.40;72.10;;;;;;5097496;28;20435;-90
2022/05/18 06:19:21;;;;;;;14.40;11.80;;;21.30;71.90;;;;;;5096381;28;20194;-89
2022/05/18 06:21:47;;;;;;;10.77;9.67;;;21.50;71.70;;;;;;5098239;28;20483;-89
2022/05/18 06:24:15;;;;;;;13.83;9.80;;;21.50;71.00;;;;;;5097146;28;20417;-89
2022/05/18 06:26:41;;;;;;;16.80;9.27;;;21.60;70.50;;;;;;5095225;28;21030;-90
2022/05/18 06:29:07;;;;;;;11.93;9.20;;;21.60;70.40;;;;;;5096909;28;20418;-89
2022/05/18 06:31:33;;;;;;;12.10;8.40;;;21.70;70.60;;;;;;5099291;28;20566;-90
2022/05/18 06:33:58;;;;;;;11.60;8.87;;;21.90;70.20;;;;;;5082829;28;20191;-90
2022/05/18 06:36:40;;;;;;;15.17;7.57;;;21.90;70.00;;;;;;5081930;28;20232;-88
2022/05/18 06:39:05;;;;;;;8.60;7.70;;;22.00;69.20;;;;;;5100435;28;20171;-90
2022/05/18 06:41:32;;;;;;;11.03;6.27;;;22.20;68.20;;;;;;5082049;28;20454;-90
2022/05/18 06:44:02;;;;;;;12.03;6.63;;;22.70;66.60;;;;;;5082082;28;20201;-90
2022/05/18 06:46:30;;;;;;;7.30;5.90;;;23.10;64.90;;;;;;5081366;28;20515;-90
2022/05/18 06:48:56;;;;;;;8.40;5.20;;;23.50;62.50;;;;;;5064943;28;20426;-90
2022/05/18 06:51:25;;;;;;;8.23;5.43;;;23.60;61.40;;;;;;5082322;28;20426;-90
2022/05/18 06:53:52;;;;;;;7.47;5.70;;;24.10;60.20;;;;;;5082414;28;20426;-90
2022/05/18 06:56:22;;;;;;;9.70;5.30;;;24.50;58.50;;;;;;5082085;28;20989;-90
2022/05/18 06:58:49;;;;;;;4.90;4.13;;;24.90;56.90;;;;;;5085805;28;20423;-90
2022/05/18 07:01:16;;;;;;;6.63;3.90;;;25.30;55.30;;;;;;5087835;28;20454;-90
2022/05/18 07:03:43;;;;;;;6.03;3.83;;;25.50;54.60;;;;;;5100559;28;20433;-90
2022/05/18 07:06:10;;;;;;;4.40;4.00;;;25.70;53.00;;;;;;5090564;28;20687;-90
2022/05/18 07:08:36;;;;;;;6.43;4.20;;;25.70;52.70;;;;;;5086590;28;20499;-90
2022/05/18 07:11:03;;;;;;;9.70;4.80;;;25.80;52.20;;;;;;5084382;28;20420;-90
2022/05/18 07:13:36;;;;;;;7.70;3.80;;;26.10;52.10;;;;;;5093518;28;20398;-90
2022/05/18 07:16:03;;;;;;;6.30;4.13;;;26.10;51.10;;;;;;5118193;28;20410;-90
2022/05/18 07:18:31;;;;;;;4.43;3.13;;;25.90;50.30;;;;;;5090221;28;20437;-89
2022/05/18 07:21:02;;;;;;;7.20;3.60;;;25.40;51.00;;;;;;5084231;28;20515;-90
2022/05/18 07:23:28;;;;;;;7.80;4.03;;;24.80;51.70;;;;;;5083963;28;20469;-90
2022/05/18 07:25:56;;;;;;;11.57;4.30;;;24.40;53.70;;;;;;5084686;28;20443;-90
2022/05/18 07:28:23;;;;;;;8.83;5.23;;;24.20;54.50;;;;;;5085653;28;20459;-90
2022/05/18 07:30:50;;;;;;;5.97;3.73;;;23.90;55.70;;;;;;5087122;28;20446;-91
2022/05/18 07:33:17;;;;;;;7.60;4.40;;;23.70;56.30;;;;;;5089824;28;20463;-90
2022/05/18 07:35:44;;;;;;;4.40;3.37;;;23.60;56.10;;;;;;5089748;28;20454;-90
2022/05/18 07:38:10;;;;;;;6.83;3.10;;;23.60;56.10;;;;;;5096650;28;20461;-91
2022/05/18 07:40:35;;;;;;;4.77;2.90;;;23.50;55.40;;;;;;5090524;28;20560;-89
2022/05/18 07:43:02;;;;;;;4.60;3.20;;;23.50;55.50;;;;;;5082127;28;20425;-90
2022/05/18 07:45:29;;;;;;;5.17;3.03;;;23.50;55.30;;;;;;5083266;28;20505;-89
2022/05/18 07:47:55;;;;;;;7.17;3.03;;;23.50;55.50;;;;;;5086019;28;20438;-90
2022/05/18 07:50:24;;;;;;;6.50;3.60;;;23.50;55.60;;;;;;5090272;28;20437;-89
2022/05/18 07:52:52;;;;;;;12.90;3.10;;;23.30;54.60;;;;;;5083220;28;20479;-89
2022/05/18 07:55:19;;;;;;;5.17;3.70;;;23.00;54.90;;;;;;5083431;28;20430;-90
2022/05/18 07:57:45;;;;;;;4.80;3.00;;;22.90;55.50;;;;;;5103078;28;20505;-89
2022/05/18 08:00:12;;;;;;;8.80;3.97;;;22.90;55.50;;;;;;5084273;28;20449;-90
2022/05/18 08:02:38;;;;;;;9.10;3.63;;;23.00;55.50;;;;;;5087560;28;20171;-89
2022/05/18 08:05:05;;;;;;;4.70;3.37;;;22.80;55.00;;;;;;5087704;28;20414;-90
2022/05/18 08:07:31;;;;;;;7.43;4.00;;;22.70;55.40;;;;;;5092484;28;20472;-90
2022/05/18 08:15:26;;;;;;;10.23;3.10;;;22.50;55.40;;;;;;5101592;28;20393;-89
2022/05/18 08:17:52;;;;;;;3.67;2.40;;;22.40;55.00;;;;;;5081867;28;20446;-89
2022/05/18 08:20:20;;;;;;;4.20;2.40;;;22.40;54.20;;;;;;5081028;28;20919;-89
2022/05/18 08:22:46;;;;;;;3.00;2.13;;;22.40;54.10;;;;;;5080603;28;20422;-89
2022/05/18 08:25:13;;;;;;;3.53;2.13;;;22.40;53.50;;;;;;5080317;28;20425;-89
2022/05/18 08:27:43;;;;;;;7.93;2.50;;;22.30;53.10;;;;;;5099545;28;20435;-89
2022/05/18 08:30:11;;;;;;;4.60;2.30;;;22.40;53.00;;;;;;5081472;28;20527;-89
2022/05/18 08:32:37;;;;;;;7.43;2.50;;;22.40;52.80;;;;;;5098025;28;20414;-89
2022/05/18 08:35:04;;;;;;;4.53;2.33;;;22.40;52.50;;;;;;5079596;28;20410;-89
2022/05/18 08:37:36;;;;;;;3.57;2.00;;;22.50;53.00;;;;;;5079621;28;20276;-89
2022/05/18 08:40:02;;;;;;;6.40;2.20;;;22.40;52.20;;;;;;5081226;28;20442;-89
2022/05/18 08:42:28;;;;;;;6.17;2.40;;;22.40;52.20;;;;;;5080383;28;20531;-89
2022/05/18 08:44:55;;;;;;;4.20;2.17;;;22.50;52.40;;;;;;5099849;28;20419;-89
2022/05/18 08:47:25;;;;;;;4.03;2.33;;;22.50;52.20;;;;;;5085627;28;20210;-89
2022/05/18 08:49:58;;;;;;;4.93;2.47;;;22.60;52.20;;;;;;5110565;28;20485;-88
2022/05/18 08:52:59;;;;;;;5.13;1.70;;;22.70;51.80;;;;;;5094811;28;20421;-89
2022/05/18 08:55:47;;;;;;;6.23;1.93;;;22.50;51.40;;;;;;5091820;28;20421;-89
2022/05/18 08:58:25;;;;;;;4.03;1.87;;;22.50;51.40;;;;;;5081744;28;20436;-89
2022/05/18 09:00:58;;;;;;;5.60;1.53;;;22.40;52.00;;;;;;5081577;28;20453;-89
2022/05/18 09:03:43;;;;;;;4.30;1.40;;;22.50;50.80;;;;;;5087138;28;20430;-90
2022/05/18 09:06:25;;;;;;;3.60;1.60;;;22.50;49.60;;;;;;5111498;28;20469;-90
2022/05/18 09:11:49;;;;;;;2.33;1.50;;;22.50;49.80;;;;;;5100028;28;20771;-90
2022/05/18 09:14:17;;;;;;;3.43;1.47;;;22.50;50.20;;;;;;5081136;28;20485;-89
2022/05/18 09:16:55;;;;;;;3.67;1.67;;;22.70;49.00;;;;;;5099558;28;20449;-90
2022/05/18 09:19:26;;;;;;;5.83;1.57;;;22.90;48.40;;;;;;5079238;28;20425;-90
2022/05/18 09:22:08;;;;;;;2.63;1.70;;;23.00;47.70;;;;;;5097009;28;20458;-90
2022/05/18 09:25:17;;;;;;;6.37;1.80;;;23.00;48.50;;;;;;5097722;28;20396;-90
2022/05/18 09:27:54;;;;;;;2.87;1.30;;;23.00;47.90;;;;;;5066960;28;20468;-90
2022/05/18 09:30:31;;;;;;;4.03;1.43;;;23.10;48.20;;;;;;5079479;28;20413;-91
2022/05/18 09:33:27;;;;;;;4.20;1.80;;;23.20;47.50;;;;;;5100991;28;20504;-91
2022/05/18 09:36:12;;;;;;;5.43;2.17;;;23.40;48.30;;;;;;5091075;28;20431;-91
2022/05/18 09:38:54;;;;;;;3.70;2.00;;;23.10;48.00;;;;;;5100062;28;20486;-91
2022/05/18 09:41:22;;;;;;;6.83;2.07;;;22.90;49.10;;;;;;5100605;28;21207;-92
2022/05/18 09:44:01;;;;;;;4.33;1.30;;;23.10;49.50;;;;;;5099246;28;20416;-91
2022/05/18 09:46:30;;;;;;;2.87;1.50;;;22.90;48.10;;;;;;5107583;28;20426;-91
2022/05/18 09:49:23;;;;;;;2.53;1.40;;;22.90;47.60;;;;;;5099696;28;20450;-90
2022/05/18 09:51:51;;;;;;;3.23;1.50;;;23.00;48.80;;;;;;5050922;28;20448;-91
2022/05/18 09:54:17;;;;;;;5.30;2.03;;;23.10;48.50;;;;;;5081780;28;20418;-92
2022/05/18 09:56:53;;;;;;;3.03;1.80;;;23.20;48.50;;;;;;5083280;28;20472;-91
2022/05/18 09:59:27;;;;;;;3.77;1.60;;;23.30;48.40;;;;;;5087039;28;20172;-91
2022/05/18 10:07:28;;;;;;;3.40;1.40;;;23.50;48.70;;;;;;5110793;28;20436;-91
2022/05/18 10:10:08;;;;;;;4.63;1.90;;;23.90;47.50;;;;;;5082551;28;20424;-91
2022/05/18 10:12:47;;;;;;;3.97;2.17;;;24.10;47.90;;;;;;5081773;28;20402;-91
2022/05/18 10:15:37;;;;;;;4.70;2.47;;;24.10;47.00;;;;;;5089154;28;20414;-91
2022/05/18 10:18:18;;;;;;;3.50;1.40;;;24.10;47.40;;;;;;5081245;28;20437;-91
2022/05/18 10:21:06;;;;;;;7.67;2.23;;;24.10;47.90;;;;;;5084448;28;20572;-90
2022/05/18 10:23:41;;;;;;;4.30;2.13;;;24.00;47.70;;;;;;5062990;28;20445;-91
2022/05/18 10:26:41;;;;;;;4.13;1.70;;;24.00;48.00;;;;;;5079794;28;20406;-91
2022/05/18 10:29:21;;;;;;;3.77;1.60;;;23.90;47.70;;;;;;5060882;28;20406;-91
2022/05/18 10:32:11;;;;;;;3.13;1.70;;;23.90;47.90;;;;;;5084714;28;20410;-89
2022/05/18 10:34:43;;;;;;;2.67;1.80;;;23.90;48.40;;;;;;5089271;28;20409;-91
2022/05/18 10:37:11;;;;;;;7.80;1.93;;;24.00;48.90;;;;;;5098093;28;20464;-89
2022/05/18 10:39:39;;;;;;;4.50;1.77;;;23.90;49.00;;;;;;5099136;28;20421;-90
2022/05/18 10:42:30;;;;;;;2.60;1.93;;;23.90;49.10;;;;;;5099826;28;20457;-90
2022/05/18 10:45:01;;;;;;;4.53;2.10;;;23.70;48.90;;;;;;5083744;28;20426;-89
2022/05/18 10:47:32;;;;;;;2.57;1.80;;;23.70;49.10;;;;;;5126213;28;20452;-91
2022/05/18 10:50:25;;;;;;;8.40;2.27;;;24.00;48.70;;;;;;5100601;28;20417;-91
2022/05/18 10:53:17;;;;;;;3.83;1.70;;;23.80;49.00;;;;;;5079652;28;20456;-90
2022/05/18 10:56:03;;;;;;;2.67;2.00;;;24.00;49.20;;;;;;5064143;28;20419;-91
2022/05/18 10:58:45;;;;;;;2.90;1.80;;;23.90;49.20;;;;;;5074848;28;20439;-91
2022/05/18 11:01:28;;;;;;;3.63;2.20;;;23.70;49.80;;;;;;5066012;28;20533;-91
2022/05/18 11:03:57;;;;;;;4.13;2.50;;;23.80;50.40;;;;;;5053217;28;20421;-91
2022/05/18 11:06:31;;;;;;;2.63;1.53;;;23.80;49.10;;;;;;5058623;28;20423;-91
2022/05/18 11:09:27;;;;;;;2.63;1.80;;;24.00;49.10;;;;;;5071809;28;20866;-91
2022/05/18 11:12:09;;;;;;;9.83;2.40;;;24.30;48.60;;;;;;5080144;28;20427;-91
2022/05/18 11:14:38;;;;;;;4.70;2.10;;;24.10;49.40;;;;;;5070039;28;20433;-91
2022/05/18 11:17:10;;;;;;;4.33;1.97;;;24.20;48.60;;;;;;5094672;28;20453;-90
2022/05/18 11:20:02;;;;;;;8.33;2.63;;;24.20;48.50;;;;;;5074317;28;20513;-91
2022/05/18 11:22:36;;;;;;;4.73;2.40;;;24.20;47.70;;;;;;5082298;28;20452;-91
2022/05/18 11:25:23;;;;;;;4.20;2.40;;;24.10;48.40;;;;;;5087986;28;20474;-90
2022/05/18 11:27:51;;;;;;;3.50;2.20;;;24.30;47.50;;;;;;5067921;28;20440;-91
2022/05/18 11:30:47;;;;;;;3.20;2.10;;;24.40;47.40;;;;;;5061832;28;20423;-91
2022/05/18 11:33:43;;;;;;;4.83;3.03;;;24.40;47.40;;;;;;5081557;28;20417;-91
2022/05/18 11:36:20;;;;;;;4.50;2.60;;;24.60;46.90;;;;;;5075096;28;20548;-92
2022/05/18 11:39:19;;;;;;;6.00;2.40;;;24.90;45.90;;;;;;5092488;28;20429;-91
2022/05/18 11:42:02;;;;;;;5.90;2.20;;;24.90;46.30;;;;;;5085513;28;20455;-91
2022/05/18 11:44:40;;;;;;;3.07;2.30;;;24.90;47.10;;;;;;5090740;28;20418;-91
2022/05/18 11:47:36;;;;;;;5.67;2.47;;;24.70;47.30;;;;;;5087299;28;20464;-91
2022/05/18 11:50:30;;;;;;;5.83;2.30;;;24.80;47.70;;;;;;5074037;28;20420;-92
2022/05/18 11:53:04;;;;;;;2.70;2.03;;;24.60;47.20;;;;;;5073681;28;20422;-92
2022/05/18 11:55:38;;;;;;;3.63;1.90;;;24.80;46.60;;;;;;5064756;28;20408;-91
2022/05/18 11:58:25;;;;;;;5.90;2.90;;;25.10;46.40;;;;;;5069421;28;20434;-91
2022/05/18 12:01:12;;;;;;;6.23;2.57;;;25.10;46.10;;;;;;5084703;28;20465;-92
2022/05/18 12:04:28;;;;;;;3.00;2.30;;;24.90;46.90;;;;;;5071887;28;20423;-91
2022/05/18 12:07:17;;;;;;;4.90;3.30;;;24.70;47.40;;;;;;5047671;28;20458;-90
2022/05/18 12:10:00;;;;;;;4.60;2.77;;;25.00;46.40;;;;;;5084883;28;20510;-91
2022/05/18 12:12:44;;;;;;;5.07;2.20;;;25.30;45.70;;;;;;5063684;28;20416;-92
2022/05/18 12:15:25;;;;;;;9.73;3.10;;;25.00;47.10;;;;;;5074280;28;20427;-90
2022/05/18 12:17:54;;;;;;;7.83;3.17;;;24.90;48.00;;;;;;5103152;28;20441;-92
2022/05/18 12:21:02;;;;;;;3.40;2.77;;;24.70;48.60;;;;;;5077429;28;20491;-92
2022/05/18 12:23:34;;;;;;;4.90;3.53;;;24.70;49.10;;;;;;5058558;28;20414;-91
2022/05/18 12:26:00;;;;;;;5.73;2.20;;;24.70;49.10;;;;;;5078591;28;20418;-92
2022/05/18 12:28:27;;;;;;;3.00;2.00;;;24.90;49.00;;;;;;5086848;28;20569;-92
2022/05/18 12:30:55;;;;;;;5.67;2.67;;;25.20;47.90;;;;;;5079080;28;20516;-91
2022/05/18 12:33:24;;;;;;;6.10;3.43;;;25.00;48.30;;;;;;5069918;28;20437;-91
2022/05/18 12:36:10;;;;;;;3.73;2.27;;;25.00;48.00;;;;;;5074855;28;20419;-91
2022/05/18 12:38:56;;;;;;;5.00;3.20;;;25.00;48.60;;;;;;5074211;28;20454;-89
2022/05/18 12:41:31;;;;;;;6.50;2.73;;;25.10;48.20;;;;;;5097071;28;20522;-91
2022/05/18 12:44:10;;;;;;;5.80;2.57;;;25.30;47.10;;;;;;5078768;28;20429;-91
2022/05/18 12:47:10;;;;;;;5.00;3.27;;;25.40;47.40;;;;;;5092733;28;20419;-91
2022/05/18 12:49:44;;;;;;;5.27;3.00;;;25.50;46.00;;;;;;5085203;28;20422;-91
2022/05/18 12:52:38;;;;;;;3.10;2.30;;;25.60;46.00;;;;;;5086918;28;20420;-91
2022/05/18 12:55:20;;;;;;;4.60;2.30;;;25.50;46.60;;;;;;5063531;28;20451;-91
2022/05/18 12:57:54;;;;;;;4.00;3.00;;;25.70;46.70;;;;;;5084974;28;20501;-90
2022/05/18 13:00:25;;;;;;;8.47;3.20;;;25.80;46.90;;;;;;5103041;28;20396;-90
2022/05/18 13:02:56;;;;;;;3.17;2.33;;;25.60;46.50;;;;;;5106912;28;20456;-88
2022/05/18 13:05:24;;;;;;;5.50;3.53;;;25.80;46.60;;;;;;5095521;28;20428;-89
2022/05/18 13:07:51;;;;;;;7.03;3.80;;;25.80;47.30;;;;;;5096868;28;20448;-88
2022/05/18 13:10:22;;;;;;;17.40;4.23;;;25.60;46.40;;;;;;5088098;28;20519;-90
2022/05/18 13:12:59;;;;;;;6.40;4.00;;;25.40;47.10;;;;;;5082067;28;20431;-89
2022/05/18 13:15:51;;;;;;;10.27;3.60;;;25.40;47.10;;;;;;5075971;28;20487;-90
2022/05/18 13:18:27;;;;;;;6.13;3.10;;;25.40;47.40;;;;;;5097590;28;20432;-89